createdAt,value
2022-10-19T00:00:15.670Z,14.07
2022-10-19T00:03:01.014Z,11.20
2022-10-19T00:06:00.467Z,15.65
2022-10-19T00:08:47.645Z,12.63
2022-10-19T00:11:34.866Z,20.83
2022-10-19T00:14:23.631Z,17.15
2022-10-19T00:17:08.793Z,14.48
2022-10-19T00:20:09.413Z,10.88
2022-10-19T00:22:54.946Z,9.80
2022-10-19T00:25:49.559Z,15.95
2022-10-19T00:28:45.770Z,14.13
2022-10-19T00:34:51.654Z,11.27
2022-10-19T00:37:52.427Z,18.17
2022-10-19T00:40:39.698Z,17.38
2022-10-19T00:43:44.524Z,15.27
2022-10-19T00:46:52.165Z,9.73
2022-10-19T00:49:43.824Z,15.65
2022-10-19T00:52:30.209Z,14.52
2022-10-19T00:55:16.378Z,10.27
2022-10-19T00:58:25.114Z,5.68
2022-10-19T01:01:17.330Z,15.52
2022-10-19T01:04:11.810Z,16.33
2022-10-19T01:06:59.313Z,11.60
2022-10-19T01:09:44.654Z,12.25
2022-10-19T01:12:40.562Z,15.30
2022-10-19T01:15:38.114Z,11.88
2022-10-19T01:22:50.600Z,14.75
2022-10-19T01:25:57.646Z,15.15
2022-10-19T01:28:48.849Z,15.05
2022-10-19T01:32:06.600Z,18.30
2022-10-19T01:35:26.118Z,19.67
2022-10-19T01:38:16.162Z,12.65
2022-10-19T01:41:20.618Z,11.27
2022-10-19T01:44:26.086Z,10.75
2022-10-19T01:47:18.732Z,16.98
2022-10-19T01:50:27.255Z,14.90
2022-10-19T01:53:14.054Z,18.00
2022-10-19T01:56:02.886Z,13.30
2022-10-19T02:02:11.832Z,12.75
2022-10-19T02:05:03.710Z,12.88
2022-10-19T02:08:16.504Z,13.90
2022-10-19T02:11:06.350Z,11.52
2022-10-19T02:14:07.756Z,18.52
2022-10-19T02:17:00.938Z,13.18
2022-10-19T02:19:46.396Z,10.25
2022-10-19T02:22:32.483Z,16.55
2022-10-19T02:25:18.315Z,14.15
2022-10-19T02:28:08.578Z,6.25
2022-10-19T02:30:54.413Z,12.00
2022-10-19T02:33:56.692Z,10.02
2022-10-19T02:37:09.677Z,12.02
2022-10-19T02:40:25.603Z,8.60
2022-10-19T02:43:19.317Z,12.85
2022-10-19T02:46:31.363Z,17.45
2022-10-19T02:49:17.646Z,20.35
2022-10-19T02:52:05.732Z,11.52
2022-10-19T02:55:00.378Z,14.98
2022-10-19T02:57:59.398Z,13.38
2022-10-19T03:00:44.601Z,14.30
2022-10-19T03:03:38.293Z,11.52
2022-10-19T03:09:59.139Z,6.82
2022-10-19T03:12:44.462Z,12.57
2022-10-19T03:15:59.558Z,14.27
2022-10-19T03:22:47.743Z,13.50
2022-10-19T03:25:33.300Z,9.48
2022-10-19T03:28:18.606Z,12.50
2022-10-19T03:31:18.024Z,13.65
2022-10-19T03:34:15.893Z,19.42
2022-10-19T03:37:01.425Z,10.80
2022-10-19T03:40:16.675Z,17.52
2022-10-19T03:43:13.118Z,22.85
2022-10-19T03:49:13.983Z,11.45
2022-10-19T03:55:55.291Z,11.88
2022-10-19T03:59:05.088Z,11.90
2022-10-19T04:02:35.590Z,15.85
2022-10-19T04:05:25.835Z,22.77
2022-10-19T04:08:37.891Z,15.02
2022-10-19T04:12:09.155Z,14.80
2022-10-19T04:15:12.694Z,16.17
2022-10-19T04:17:58.985Z,11.55
2022-10-19T04:21:15.112Z,17.58
2022-10-19T04:24:20.706Z,22.15
2022-10-19T04:27:29.279Z,13.73
2022-10-19T04:30:44.403Z,10.65
2022-10-19T04:36:46.017Z,18.85
2022-10-19T04:39:45.884Z,18.40
2022-10-19T04:43:13.763Z,10.80
2022-10-19T04:46:39.747Z,15.68
2022-10-19T04:49:29.108Z,21.10
2022-10-19T04:52:14.832Z,17.63
2022-10-19T04:55:00.039Z,21.30
2022-10-19T04:57:45.662Z,14.93
2022-10-19T05:00:31.084Z,23.60
2022-10-19T05:03:17.358Z,16.73
2022-10-19T05:06:02.580Z,18.65
2022-10-19T05:08:50.190Z,15.80
2022-10-19T05:11:35.669Z,19.02
2022-10-19T05:14:21.138Z,18.55
2022-10-19T05:17:06.659Z,16.40
2022-10-19T05:19:52.097Z,22.13
2022-10-19T05:22:38.698Z,22.00
2022-10-19T05:25:24.000Z,22.63
2022-10-19T05:28:09.460Z,22.63
2022-10-19T05:30:55.625Z,23.48
2022-10-19T05:33:42.018Z,22.77
2022-10-19T05:36:32.334Z,17.15
2022-10-19T05:39:18.640Z,19.77
2022-10-19T05:42:04.323Z,21.20
2022-10-19T05:44:49.830Z,20.95
2022-10-19T05:47:35.793Z,26.10
2022-10-19T05:50:21.408Z,19.25
2022-10-19T05:53:06.933Z,23.48
2022-10-19T05:55:52.632Z,17.23
2022-10-19T05:58:38.211Z,26.52
2022-10-19T06:01:24.267Z,20.88
2022-10-19T06:04:10.847Z,20.90
2022-10-19T06:06:56.362Z,23.95
2022-10-19T06:09:41.938Z,23.40
2022-10-19T06:12:27.167Z,21.23
2022-10-19T06:15:13.098Z,25.95
2022-10-19T06:17:58.581Z,22.95
2022-10-19T06:20:44.173Z,20.58
2022-10-19T06:23:30.424Z,20.02
2022-10-19T06:26:15.658Z,36.95
2022-10-19T06:29:02.274Z,20.52
2022-10-19T06:31:48.256Z,25.70
2022-10-19T06:34:33.484Z,25.05
2022-10-19T06:37:19.287Z,39.80
2022-10-19T06:40:07.198Z,25.40
2022-10-19T06:42:54.501Z,27.83
2022-10-19T06:45:39.854Z,22.73
2022-10-19T06:48:25.406Z,29.10
2022-10-19T06:51:11.878Z,26.52
2022-10-19T06:53:57.612Z,26.05
2022-10-19T06:56:43.299Z,32.63
2022-10-19T06:59:28.651Z,26.15
2022-10-19T07:02:14.521Z,22.92
2022-10-19T07:05:04.476Z,24.70
2022-10-19T07:07:52.378Z,17.15
2022-10-19T07:10:37.820Z,24.73
2022-10-19T07:13:23.717Z,26.10
2022-10-19T07:16:15.952Z,16.50
2022-10-19T07:19:04.857Z,21.10
2022-10-19T07:21:53.422Z,16.17
2022-10-19T07:24:38.876Z,24.35
2022-10-19T07:27:24.969Z,21.63
2022-10-19T07:30:10.797Z,17.05
2022-10-19T07:32:55.944Z,20.30
2022-10-19T07:35:41.488Z,16.83
2022-10-19T07:38:27.078Z,16.20
2022-10-19T07:41:15.328Z,16.08
2022-10-19T07:44:01.728Z,18.05
2022-10-19T07:46:47.171Z,15.27
2022-10-19T07:49:32.541Z,22.67
2022-10-19T07:52:18.150Z,15.52
2022-10-19T07:55:03.771Z,12.80
2022-10-19T07:57:49.797Z,18.23
2022-10-19T08:00:35.069Z,20.52
2022-10-19T08:06:26.635Z,16.27
2022-10-19T08:09:27.634Z,33.88
2022-10-19T08:12:17.402Z,21.23
2022-10-19T08:15:02.943Z,15.43
2022-10-19T08:17:48.471Z,15.05
2022-10-19T08:20:33.855Z,15.40
2022-10-19T08:23:19.479Z,18.85
2022-10-19T08:26:05.134Z,22.02
2022-10-19T08:28:50.690Z,25.90
2022-10-19T08:31:36.608Z,15.60
2022-10-19T08:34:22.116Z,17.08
2022-10-19T08:37:19.732Z,15.82
2022-10-19T08:40:24.075Z,16.83
2022-10-19T08:43:24.795Z,20.08
2022-10-19T08:46:34.286Z,18.55
2022-10-19T08:49:23.527Z,24.70
2022-10-19T08:52:21.403Z,16.00
2022-10-19T08:55:19.770Z,21.73
2022-10-19T08:58:25.099Z,16.73
2022-10-19T09:01:16.400Z,11.95
2022-10-19T09:04:13.095Z,16.35
2022-10-19T09:07:25.640Z,15.75
2022-10-19T09:10:10.752Z,13.55
2022-10-19T09:12:58.854Z,17.58
2022-10-19T09:15:46.981Z,17.27
2022-10-19T09:18:34.468Z,23.73
2022-10-19T09:21:48.555Z,17.77
2022-10-19T09:24:51.618Z,18.63
2022-10-19T09:27:40.518Z,21.80
2022-10-19T09:30:27.920Z,19.55
2022-10-19T09:33:23.115Z,20.00
2022-10-19T09:36:18.191Z,19.23
2022-10-19T09:39:12.344Z,16.88
2022-10-19T09:42:00.929Z,16.25
2022-10-19T09:44:47.110Z,21.95
2022-10-19T09:47:35.398Z,15.90
2022-10-19T09:50:31.156Z,17.13
2022-10-19T09:53:20.994Z,15.60
2022-10-19T09:56:08.700Z,19.00
2022-10-19T09:58:58.831Z,16.17
2022-10-19T10:01:44.381Z,15.73
2022-10-19T10:04:30.503Z,15.82
2022-10-19T10:07:19.009Z,17.73
2022-10-19T10:10:26.848Z,20.95
2022-10-19T10:13:19.179Z,20.05
2022-10-19T10:16:08.110Z,16.08
2022-10-19T10:19:01.151Z,14.43
2022-10-19T10:21:47.981Z,13.43
2022-10-19T10:24:34.667Z,18.30
2022-10-19T10:27:35.567Z,16.98
2022-10-19T10:30:21.179Z,15.57
2022-10-19T10:33:21.110Z,18.98
2022-10-19T10:36:13.115Z,15.07
2022-10-19T10:39:06.781Z,16.45
2022-10-19T10:41:52.093Z,23.08
2022-10-19T10:44:39.256Z,22.02
2022-10-19T10:47:27.744Z,19.27
2022-10-19T10:50:22.090Z,18.80
2022-10-19T10:53:37.727Z,19.05
2022-10-19T10:56:29.308Z,14.05
2022-10-19T10:59:26.280Z,22.05
2022-10-19T11:02:30.473Z,21.38
2022-10-19T11:05:24.123Z,17.88
2022-10-19T11:08:12.349Z,20.27
2022-10-19T11:11:06.514Z,16.63
2022-10-19T11:14:13.222Z,25.98
2022-10-19T11:17:04.058Z,22.63
2022-10-19T11:19:53.673Z,16.42
2022-10-19T11:23:14.636Z,15.13
2022-10-19T11:26:36.538Z,19.90
2022-10-19T11:29:52.362Z,15.50
2022-10-19T11:32:52.623Z,19.42
2022-10-19T11:36:00.141Z,20.15
2022-10-19T11:39:05.726Z,28.83
2022-10-19T11:41:59.994Z,15.15
2022-10-19T11:44:58.386Z,18.90
2022-10-19T11:47:53.895Z,17.15
2022-10-19T11:50:39.274Z,15.60
2022-10-19T11:53:33.890Z,22.05
2022-10-19T11:57:03.936Z,21.83
2022-10-19T12:00:03.729Z,19.05
2022-10-19T12:03:14.653Z,20.88
2022-10-19T12:06:14.460Z,22.80
2022-10-19T12:09:05.496Z,15.43
2022-10-19T12:11:56.471Z,16.02
2022-10-19T12:14:45.394Z,13.02
2022-10-19T12:17:36.410Z,17.27
2022-10-19T12:20:34.587Z,19.58
2022-10-19T12:23:37.344Z,17.08
2022-10-19T12:26:23.138Z,15.25
2022-10-19T12:29:25.557Z,24.15
2022-10-19T12:32:15.135Z,21.50
2022-10-19T12:38:43.929Z,25.67
2022-10-19T12:41:56.617Z,18.20
2022-10-19T12:44:53.765Z,16.77
2022-10-19T12:48:14.544Z,16.83
2022-10-19T12:51:03.193Z,20.17
2022-10-19T12:53:49.367Z,21.23
2022-10-19T12:56:48.667Z,19.50
2022-10-19T12:59:36.325Z,20.27
2022-10-19T13:02:30.375Z,19.38
2022-10-19T13:05:25.151Z,17.67
2022-10-19T13:08:28.672Z,16.65
2022-10-19T13:11:15.465Z,16.40
2022-10-19T13:14:19.723Z,20.90
2022-10-19T13:17:04.931Z,18.48
2022-10-19T13:19:50.165Z,16.92
2022-10-19T13:22:35.945Z,15.90
2022-10-19T13:25:37.257Z,22.27
2022-10-19T13:28:28.782Z,14.20
2022-10-19T13:31:27.143Z,19.48
2022-10-19T13:34:16.504Z,17.95
2022-10-19T13:37:03.703Z,22.73
2022-10-19T13:39:49.839Z,13.68
2022-10-19T13:42:35.404Z,20.98
2022-10-19T13:45:23.398Z,21.23
2022-10-19T13:48:25.835Z,25.27
2022-10-19T13:51:23.605Z,18.58
2022-10-19T13:54:47.858Z,15.63
2022-10-19T13:58:02.665Z,17.10
2022-10-19T14:01:10.123Z,17.58
2022-10-19T14:04:04.043Z,15.68
2022-10-19T14:06:56.023Z,17.92
2022-10-19T14:10:08.245Z,17.92
2022-10-19T14:12:54.186Z,18.65
2022-10-19T14:15:40.128Z,19.20
2022-10-19T14:18:28.706Z,20.20
2022-10-19T14:21:13.877Z,20.45
2022-10-19T14:24:00.028Z,21.83
2022-10-19T14:26:46.703Z,24.35
2022-10-19T14:29:36.641Z,27.20
2022-10-19T14:32:26.167Z,19.23
2022-10-19T14:35:24.450Z,17.70
2022-10-19T14:38:20.355Z,26.27
2022-10-19T14:41:06.912Z,23.33
2022-10-19T14:43:52.270Z,29.40
2022-10-19T14:46:37.543Z,25.45
2022-10-19T14:49:23.182Z,23.15
2022-10-19T14:52:11.017Z,20.13
2022-10-19T14:54:56.982Z,21.27
2022-10-19T14:57:45.618Z,22.33
2022-10-19T15:00:33.385Z,21.10
2022-10-19T15:03:25.855Z,26.85
2022-10-19T15:06:42.520Z,14.73
2022-10-19T15:09:43.964Z,19.85
2022-10-19T15:12:41.409Z,20.55
2022-10-19T15:15:29.383Z,22.98
2022-10-19T15:18:43.397Z,29.30
2022-10-19T15:21:23.736Z,19.08
2022-10-19T15:24:26.420Z,26.63
2022-10-19T15:27:20.750Z,28.57
2022-10-19T15:30:24.262Z,27.58
2022-10-19T15:33:15.828Z,20.05
2022-10-19T15:36:16.964Z,21.80
2022-10-19T15:39:24.686Z,25.10
2022-10-19T15:42:35.661Z,24.58
2022-10-19T15:45:35.905Z,21.88
2022-10-19T15:48:51.063Z,19.15
2022-10-19T15:51:44.624Z,25.00
2022-10-19T15:54:29.902Z,33.67
2022-10-19T15:57:36.929Z,25.30
2022-10-19T16:00:22.896Z,24.35
2022-10-19T16:03:09.157Z,21.63
2022-10-19T16:05:54.929Z,25.13
2022-10-19T16:08:40.186Z,25.38
2022-10-19T16:11:26.380Z,18.15
2022-10-19T16:14:12.077Z,22.50
2022-10-19T16:17:03.359Z,26.38
2022-10-19T16:19:49.290Z,29.30
2022-10-19T16:22:34.616Z,23.90
2022-10-19T16:25:20.723Z,26.95
2022-10-19T16:28:06.349Z,23.90
2022-10-19T16:30:53.745Z,25.38
2022-10-19T16:33:39.230Z,23.80
2022-10-19T16:36:24.823Z,28.13
2022-10-19T16:39:10.373Z,29.23
2022-10-19T16:41:55.822Z,21.55
2022-10-19T16:44:41.454Z,21.88
2022-10-19T16:47:26.854Z,22.38
2022-10-19T16:50:12.679Z,26.65
2022-10-19T16:53:12.237Z,22.33
2022-10-19T16:56:06.412Z,25.70
2022-10-19T16:59:01.062Z,25.92
2022-10-19T17:01:47.592Z,30.23
2022-10-19T17:04:33.363Z,26.92
2022-10-19T17:07:18.882Z,31.83
2022-10-19T17:10:05.052Z,21.30
2022-10-19T17:12:50.504Z,23.77
2022-10-19T17:15:42.796Z,25.05
2022-10-19T17:18:28.537Z,26.03
2022-10-19T17:21:26.664Z,28.52
2022-10-19T17:24:21.622Z,26.30
2022-10-19T17:27:07.433Z,23.83
2022-10-19T17:29:52.571Z,22.23
2022-10-19T17:32:38.118Z,22.67
2022-10-19T17:35:23.696Z,32.25
2022-10-19T17:38:09.286Z,20.98
2022-10-19T17:40:54.726Z,25.52
2022-10-19T17:43:42.141Z,28.35
2022-10-19T17:46:30.869Z,23.88
2022-10-19T17:49:16.488Z,25.38
2022-10-19T17:52:01.903Z,29.45
2022-10-19T17:54:54.751Z,26.27
2022-10-19T17:57:53.270Z,22.15
2022-10-19T18:00:39.500Z,28.33
2022-10-19T18:03:27.822Z,35.35
2022-10-19T18:06:22.191Z,28.00
2022-10-19T18:09:09.713Z,35.10
2022-10-19T18:11:55.527Z,34.28
2022-10-19T18:14:40.990Z,29.30
2022-10-19T18:17:27.779Z,45.42
2022-10-19T18:20:13.348Z,30.70
2022-10-19T18:22:58.993Z,32.67
2022-10-19T18:25:53.831Z,31.50
2022-10-19T18:28:40.834Z,28.80
2022-10-19T18:31:32.085Z,33.15
2022-10-19T18:34:20.542Z,30.55
2022-10-19T18:37:07.372Z,30.50
2022-10-19T18:39:53.860Z,33.22
2022-10-19T18:42:39.563Z,31.40
2022-10-19T18:45:31.406Z,30.10
2022-10-19T18:48:19.274Z,30.80
2022-10-19T18:51:10.124Z,30.02
2022-10-19T18:53:59.382Z,33.33
2022-10-19T18:56:45.057Z,30.35
2022-10-19T18:59:31.058Z,33.08
2022-10-19T19:02:22.785Z,37.60
2022-10-19T19:05:14.547Z,26.92
2022-10-19T19:08:00.038Z,27.83
2022-10-19T19:10:46.378Z,31.55
2022-10-19T19:13:33.990Z,28.30
2022-10-19T19:16:20.713Z,37.25
2022-10-19T19:19:08.434Z,30.95
2022-10-19T19:21:55.204Z,32.40
2022-10-19T19:24:42.271Z,30.27
2022-10-19T19:27:31.542Z,32.95
2022-10-19T19:30:17.551Z,26.25
2022-10-19T19:33:04.492Z,32.03
2022-10-19T19:35:52.295Z,31.20
2022-10-19T19:38:38.162Z,38.60
2022-10-19T19:41:24.576Z,36.40
2022-10-19T19:44:11.047Z,31.25
2022-10-19T19:46:58.221Z,32.15
2022-10-19T19:49:44.026Z,34.17
2022-10-19T19:52:29.880Z,33.80
2022-10-19T19:55:15.703Z,33.55
2022-10-19T19:58:01.492Z,33.15
2022-10-19T20:00:47.377Z,31.60
2022-10-19T20:03:33.367Z,28.33
2022-10-19T20:06:23.545Z,34.58
2022-10-19T20:09:12.019Z,32.87
2022-10-19T20:11:57.955Z,29.23
2022-10-19T20:14:43.364Z,32.70
2022-10-19T20:17:28.910Z,33.58
2022-10-19T20:20:15.561Z,30.52
2022-10-19T20:23:01.256Z,33.28
2022-10-19T20:25:46.621Z,28.95
2022-10-19T20:28:33.369Z,32.13
2022-10-19T20:31:20.060Z,28.58
2022-10-19T20:34:09.157Z,31.88
2022-10-19T20:36:54.556Z,31.05
2022-10-19T20:39:43.052Z,34.40
2022-10-19T20:42:28.689Z,30.45
2022-10-19T20:45:15.902Z,34.47
2022-10-19T20:48:01.220Z,35.20
2022-10-19T20:50:47.874Z,40.15
2022-10-19T20:53:33.630Z,33.88
2022-10-19T20:56:23.651Z,36.65
2022-10-19T20:59:13.672Z,33.05
2022-10-19T21:01:59.431Z,34.10
2022-10-19T21:04:45.018Z,41.83
2022-10-19T21:07:30.330Z,33.15
2022-10-19T21:10:16.067Z,37.65
2022-10-19T21:13:01.507Z,30.83
2022-10-19T21:15:47.105Z,33.60
2022-10-19T21:18:33.382Z,35.17
2022-10-19T21:21:30.577Z,35.70
2022-10-19T21:24:19.242Z,35.08
2022-10-19T21:27:07.987Z,36.28
2022-10-19T21:29:53.610Z,34.75
2022-10-19T21:32:38.948Z,37.20
2022-10-19T21:35:24.399Z,35.85
2022-10-19T21:38:09.642Z,35.15
2022-10-19T21:41:04.221Z,36.97
2022-10-19T21:43:49.616Z,38.08
2022-10-19T21:46:35.208Z,33.35
2022-10-19T21:49:20.539Z,34.53
2022-10-19T21:52:06.175Z,39.25
2022-10-19T21:54:53.583Z,32.15
2022-10-19T21:57:39.222Z,33.28
2022-10-19T22:00:24.839Z,37.25
2022-10-19T22:03:10.684Z,33.40
2022-10-19T22:05:56.648Z,29.70
2022-10-19T22:08:46.369Z,36.83
2022-10-19T22:11:32.067Z,33.80
2022-10-19T22:14:18.035Z,33.40
2022-10-19T22:17:03.338Z,32.95
2022-10-19T22:19:50.631Z,35.33
2022-10-19T22:22:36.226Z,30.50
2022-10-19T22:25:22.098Z,35.40
2022-10-19T22:28:07.547Z,38.95
2022-10-19T22:30:57.768Z,36.60
2022-10-19T22:33:43.296Z,42.60
2022-10-19T22:36:28.794Z,38.30
2022-10-19T22:39:15.124Z,33.50
2022-10-19T22:42:00.857Z,34.80
2022-10-19T22:44:46.241Z,36.38
2022-10-19T22:47:31.824Z,36.40
2022-10-19T22:50:17.358Z,37.85
2022-10-19T22:53:03.143Z,36.75
2022-10-19T22:55:48.737Z,38.70
2022-10-19T22:58:34.238Z,33.58
2022-10-19T23:01:20.243Z,34.40
2022-10-19T23:04:06.032Z,34.42
2022-10-19T23:06:51.311Z,36.22
2022-10-19T23:09:36.780Z,33.13
2022-10-19T23:12:22.481Z,35.67
2022-10-19T23:15:08.840Z,40.80
2022-10-19T23:17:54.025Z,39.10
2022-10-19T23:20:39.649Z,32.55
2022-10-19T23:23:25.849Z,37.70
2022-10-19T23:26:16.773Z,39.08
2022-10-19T23:29:02.218Z,39.08
2022-10-19T23:31:48.404Z,44.85
2022-10-19T23:37:24.138Z,41.28
2022-10-19T23:40:10.191Z,40.75
2022-10-19T23:42:55.699Z,32.25
2022-10-19T23:45:41.201Z,37.67
2022-10-19T23:48:26.907Z,37.03
2022-10-19T23:51:15.278Z,36.83
2022-10-19T23:54:00.433Z,36.05
2022-10-19T23:56:45.967Z,38.65
2022-10-19T23:59:31.536Z,37.22
